createdAt,value
2023-01-11T00:00:45.046Z,2.67
2023-01-11T00:03:12.247Z,2.85
2023-01-11T00:05:42.969Z,3.17
2023-01-11T00:08:10.150Z,3.20
2023-01-11T00:10:36.827Z,3.53
2023-01-11T00:13:03.920Z,4.03
2023-01-11T00:15:30.773Z,3.42
2023-01-11T00:17:57.636Z,3.47
2023-01-11T00:20:24.507Z,3.17
2023-01-11T00:22:51.022Z,3.50
2023-01-11T00:25:17.785Z,3.58
2023-01-11T00:27:44.213Z,3.70
2023-01-11T00:30:11.375Z,3.72
2023-01-11T00:32:37.744Z,2.88
2023-01-11T00:35:04.488Z,2.78
2023-01-11T00:37:30.988Z,3.40
2023-01-11T00:39:57.395Z,3.78
2023-01-11T00:42:42.387Z,3.00
2023-01-11T00:45:27.834Z,2.80
2023-01-11T00:47:57.361Z,3.22
2023-01-11T00:50:25.003Z,3.28
2023-01-11T00:52:51.456Z,3.03
2023-01-11T00:55:17.918Z,3.53
2023-01-11T00:57:44.314Z,3.17
2023-01-11T01:00:11.439Z,3.65
2023-01-11T01:02:38.139Z,3.53
2023-01-11T01:05:04.857Z,3.22
2023-01-11T01:07:31.262Z,3.88
2023-01-11T01:09:57.711Z,3.80
2023-01-11T01:12:42.466Z,3.83
2023-01-11T01:15:09.351Z,3.15
2023-01-11T01:17:35.735Z,2.95
2023-01-11T01:20:02.122Z,2.80
2023-01-11T01:22:28.664Z,3.25
2023-01-11T01:24:55.042Z,3.20
2023-01-11T01:27:21.443Z,2.72
2023-01-11T01:29:47.873Z,3.03
2023-01-11T01:32:14.250Z,3.05
2023-01-11T01:34:40.688Z,3.67
2023-01-11T01:37:08.101Z,3.55
2023-01-11T01:39:34.589Z,2.65
2023-01-11T01:42:01.126Z,2.80
2023-01-11T01:44:55.110Z,3.05
2023-01-11T01:47:27.002Z,2.70
2023-01-11T01:49:54.231Z,2.47
2023-01-11T01:52:21.362Z,2.97
2023-01-11T01:54:49.357Z,3.22
2023-01-11T01:57:25.781Z,2.85
2023-01-11T01:59:56.194Z,4.15
2023-01-11T02:02:24.936Z,2.92
2023-01-11T02:04:54.670Z,3.00
2023-01-11T02:07:26.450Z,3.97
2023-01-11T02:09:57.084Z,4.00
2023-01-11T02:12:25.768Z,3.20
2023-01-11T02:14:54.492Z,2.63
2023-01-11T02:17:21.637Z,4.28
2023-01-11T02:19:54.395Z,3.25
2023-01-11T02:22:52.874Z,3.70
2023-01-11T02:25:28.399Z,3.47
2023-01-11T02:28:13.200Z,3.38
2023-01-11T02:30:45.565Z,4.43
2023-01-11T02:33:42.776Z,3.25
2023-01-11T02:36:27.095Z,2.78
2023-01-11T02:39:14.665Z,2.58
2023-01-11T02:42:27.291Z,3.22
2023-01-11T02:45:06.505Z,3.70
2023-01-11T02:47:56.152Z,4.35
2023-01-11T02:50:25.297Z,2.58
2023-01-11T02:52:59.287Z,3.83
2023-01-11T02:55:31.241Z,3.28
2023-01-11T02:58:01.381Z,2.70
2023-01-11T03:00:29.001Z,3.40
2023-01-11T03:03:14.774Z,3.13
2023-01-11T03:05:51.384Z,3.85
2023-01-11T03:08:40.492Z,4.20
2023-01-11T03:11:39.715Z,2.97
2023-01-11T03:14:21.127Z,2.78
2023-01-11T03:17:16.602Z,2.75
2023-01-11T03:19:50.856Z,2.65
2023-01-11T03:22:32.151Z,2.88
2023-01-11T03:25:04.271Z,2.50
2023-01-11T03:27:46.151Z,2.95
2023-01-11T03:30:21.666Z,2.20
2023-01-11T03:33:01.800Z,2.95
2023-01-11T03:35:31.219Z,2.72
2023-01-11T03:38:00.353Z,2.83
2023-01-11T03:40:33.714Z,3.13
2023-01-11T03:43:13.694Z,2.63
2023-01-11T03:45:49.395Z,2.30
2023-01-11T03:48:30.993Z,2.20
2023-01-11T03:51:00.136Z,3.75
2023-01-11T03:53:30.658Z,2.22
2023-01-11T03:56:00.100Z,2.47
2023-01-11T03:58:30.052Z,2.70
2023-01-11T04:00:58.022Z,2.45
2023-01-11T04:03:27.151Z,2.50
2023-01-11T04:05:59.247Z,3.08
2023-01-11T04:08:25.985Z,2.00
2023-01-11T04:10:52.422Z,2.20
2023-01-11T04:13:18.882Z,3.10
2023-01-11T04:15:45.507Z,2.15
2023-01-11T04:18:11.906Z,2.10
2023-01-11T04:20:40.224Z,2.40
2023-01-11T04:23:08.359Z,2.25
2023-01-11T04:25:34.832Z,2.17
2023-01-11T04:28:01.715Z,1.92
2023-01-11T04:30:28.121Z,3.65
2023-01-11T04:32:57.726Z,3.25
2023-01-11T04:35:24.105Z,1.88
2023-01-11T04:37:54.621Z,1.80
2023-01-11T04:40:21.160Z,2.17
2023-01-11T04:42:47.686Z,1.88
2023-01-11T04:45:14.261Z,2.22
2023-01-11T04:47:40.718Z,2.40
2023-01-11T04:50:08.569Z,2.25
2023-01-11T04:52:35.103Z,2.10
2023-01-11T04:55:01.508Z,2.20
2023-01-11T04:57:27.888Z,2.25
2023-01-11T04:59:54.284Z,2.47
2023-01-11T05:02:20.779Z,1.88
2023-01-11T05:04:47.159Z,2.38
2023-01-11T05:07:13.703Z,2.47
2023-01-11T05:09:40.782Z,2.05
2023-01-11T05:12:07.265Z,2.00
2023-01-11T05:14:33.705Z,1.98
2023-01-11T05:17:00.168Z,1.98
2023-01-11T05:19:26.593Z,1.92
2023-01-11T05:21:52.983Z,1.95
2023-01-11T05:24:19.485Z,2.05
2023-01-11T05:26:48.250Z,1.63
2023-01-11T05:29:20.737Z,1.90
2023-01-11T05:31:47.714Z,2.15
2023-01-11T05:34:14.950Z,1.92
2023-01-11T05:36:42.091Z,1.83
2023-01-11T05:39:08.852Z,2.40
2023-01-11T05:41:35.304Z,1.80
2023-01-11T05:44:20.441Z,1.80
2023-01-11T05:46:46.872Z,1.60
2023-01-11T05:49:14.397Z,1.63
2023-01-11T05:51:42.291Z,2.03
2023-01-11T05:54:12.792Z,2.13
2023-01-11T05:56:39.498Z,1.73
2023-01-11T05:59:06.116Z,2.15
2023-01-11T06:01:32.831Z,1.92
2023-01-11T06:03:59.345Z,2.08
2023-01-11T06:06:26.051Z,1.58
2023-01-11T06:08:52.574Z,1.50
2023-01-11T06:11:19.047Z,1.30
2023-01-11T06:13:45.476Z,1.63
2023-01-11T06:16:15.674Z,2.22
2023-01-11T06:18:47.608Z,1.88
2023-01-11T06:21:15.536Z,1.17
2023-01-11T06:23:45.090Z,1.70
2023-01-11T06:26:14.654Z,1.50
2023-01-11T06:28:41.313Z,2.28
2023-01-11T06:31:08.543Z,1.60
2023-01-11T06:33:36.166Z,2.05
2023-01-11T06:36:05.615Z,1.70
2023-01-11T06:38:32.406Z,1.85
2023-01-11T06:41:00.575Z,1.98
2023-01-11T06:43:28.361Z,1.20
2023-01-11T06:45:55.782Z,1.48
2023-01-11T06:48:24.358Z,1.42
2023-01-11T06:50:53.048Z,1.33
2023-01-11T06:53:19.713Z,1.50
2023-01-11T06:55:50.855Z,1.55
2023-01-11T06:58:17.360Z,1.88
2023-01-11T07:00:43.887Z,1.60
2023-01-11T07:03:11.928Z,1.75
2023-01-11T07:05:39.098Z,1.73
2023-01-11T07:08:05.904Z,1.42
2023-01-11T07:10:32.469Z,1.58
2023-01-11T07:12:58.839Z,1.55
2023-01-11T07:15:25.496Z,1.70
2023-01-11T07:18:01.066Z,1.55
2023-01-11T07:20:27.721Z,1.55
2023-01-11T07:22:59.401Z,1.50
2023-01-11T07:27:59.316Z,1.50
2023-01-11T07:30:30.331Z,1.60
2023-01-11T07:33:00.599Z,1.45
2023-01-11T07:35:29.014Z,1.90
2023-01-11T07:37:55.516Z,1.80
2023-01-11T07:40:22.031Z,2.00
2023-01-11T07:43:08.528Z,1.80
2023-01-11T07:45:45.438Z,2.15
2023-01-11T07:48:13.903Z,1.85
2023-01-11T07:50:44.251Z,1.95
2023-01-11T07:53:11.872Z,2.65
2023-01-11T07:55:39.656Z,2.15
2023-01-11T07:58:07.469Z,2.35
2023-01-11T08:00:33.860Z,1.73
2023-01-11T08:03:00.497Z,2.22
2023-01-11T08:05:27.191Z,2.00
2023-01-11T08:07:53.575Z,1.88
2023-01-11T08:10:20.043Z,1.73
2023-01-11T08:13:06.935Z,1.70
2023-01-11T08:15:36.571Z,2.00
2023-01-11T08:18:05.667Z,2.10
2023-01-11T08:20:32.109Z,1.80
2023-01-11T08:23:03.471Z,1.67
2023-01-11T08:25:30.176Z,2.63
2023-01-11T08:28:00.562Z,2.03
2023-01-11T08:30:27.189Z,2.03
2023-01-11T08:32:53.621Z,2.28
2023-01-11T08:35:21.775Z,1.92
2023-01-11T08:37:48.225Z,2.22
2023-01-11T08:40:14.688Z,1.90
2023-01-11T08:42:41.101Z,1.65
2023-01-11T08:45:08.316Z,1.90
2023-01-11T08:47:34.765Z,2.33
2023-01-11T08:50:01.144Z,2.40
2023-01-11T08:52:27.629Z,1.80
2023-01-11T08:54:54.056Z,2.40
2023-01-11T08:57:20.860Z,2.25
2023-01-11T08:59:47.385Z,2.03
2023-01-11T09:02:13.889Z,1.83
2023-01-11T09:04:41.697Z,2.53
2023-01-11T09:07:08.205Z,1.95
2023-01-11T09:09:34.654Z,2.05
2023-01-11T09:12:05.513Z,2.90
2023-01-11T09:14:32.293Z,2.20
2023-01-11T09:16:58.927Z,2.25
2023-01-11T09:19:25.412Z,1.90
2023-01-11T09:21:52.194Z,2.15
2023-01-11T09:24:18.962Z,2.60
2023-01-11T09:26:45.435Z,2.83
2023-01-11T09:29:12.264Z,2.85
2023-01-11T09:31:38.805Z,2.30
2023-01-11T09:34:06.817Z,1.73
2023-01-11T09:36:35.817Z,1.80
2023-01-11T09:39:06.312Z,2.30
2023-01-11T09:41:41.861Z,2.25
2023-01-11T09:44:16.388Z,2.00
2023-01-11T09:46:48.225Z,2.17
2023-01-11T09:49:28.010Z,2.90
2023-01-11T09:52:05.523Z,2.08
2023-01-11T09:54:32.294Z,2.30
2023-01-11T09:57:21.092Z,2.20
2023-01-11T10:00:04.944Z,2.45
2023-01-11T10:02:59.119Z,3.42
2023-01-11T10:05:51.411Z,2.40
2023-01-11T10:18:31.767Z,2.28
2023-01-11T10:18:37.390Z,1.95
2023-01-11T10:20:44.607Z,2.08
2023-01-11T10:23:32.068Z,2.30
2023-01-11T10:26:04.933Z,2.15
2023-01-11T10:28:43.057Z,2.45
2023-01-11T10:31:43.908Z,2.60
2023-01-11T10:34:38.483Z,2.45
2023-01-11T10:37:20.853Z,2.50
2023-01-11T10:40:40.454Z,3.50
2023-01-11T10:43:17.095Z,3.33
2023-01-11T10:46:08.397Z,3.25
2023-01-11T10:48:44.481Z,3.28
2023-01-11T10:51:37.837Z,2.35
2023-01-11T10:54:17.855Z,2.63
2023-01-11T10:57:05.200Z,2.60
2023-01-11T10:59:41.228Z,2.60
2023-01-11T11:02:49.615Z,3.08
2023-01-11T11:05:26.875Z,3.50
2023-01-11T11:08:28.397Z,12.00
2023-01-11T11:11:17.616Z,6.00
2023-01-11T11:13:47.270Z,5.60
2023-01-11T11:16:27.059Z,3.67
2023-01-11T11:18:58.579Z,3.58
2023-01-11T11:21:35.860Z,3.67
2023-01-11T11:24:08.295Z,3.08
2023-01-11T11:26:43.096Z,2.75
2023-01-11T11:29:11.674Z,5.70
2023-01-11T11:31:43.999Z,3.75
2023-01-11T11:34:17.676Z,2.67
2023-01-11T11:36:46.315Z,2.67
2023-01-11T11:39:22.124Z,3.25
2023-01-11T11:41:51.700Z,3.10
2023-01-11T11:44:24.191Z,3.53
2023-01-11T11:47:01.378Z,3.72
2023-01-11T11:49:30.459Z,2.92
2023-01-11T11:51:58.701Z,3.72
2023-01-11T11:54:29.878Z,2.60
2023-01-11T11:56:58.853Z,2.58
2023-01-11T11:59:29.903Z,2.30
2023-01-11T12:02:04.849Z,2.63
2023-01-11T12:04:53.287Z,2.40
2023-01-11T12:07:27.018Z,2.72
2023-01-11T12:10:07.087Z,2.20
2023-01-11T12:12:36.374Z,2.28
2023-01-11T12:15:15.160Z,1.98
2023-01-11T12:17:43.032Z,2.53
2023-01-11T12:20:24.339Z,2.35
2023-01-11T12:23:08.820Z,2.60
2023-01-11T12:25:45.222Z,2.50
2023-01-11T12:28:28.319Z,2.17
2023-01-11T12:31:17.800Z,2.00
2023-01-11T12:34:23.745Z,2.20
2023-01-11T12:37:05.237Z,2.45
2023-01-11T12:39:46.700Z,1.83
2023-01-11T12:42:34.638Z,1.50
2023-01-11T12:45:16.790Z,2.05
2023-01-11T12:47:43.237Z,1.90
2023-01-11T12:50:25.361Z,1.90
2023-01-11T12:53:36.621Z,1.45
2023-01-11T12:56:11.742Z,1.67
2023-01-11T12:58:49.987Z,1.98
2023-01-11T13:01:50.806Z,1.80
2023-01-11T13:04:59.948Z,2.15
2023-01-11T13:07:32.321Z,1.98
2023-01-11T13:10:36.390Z,2.10
2023-01-11T13:13:12.268Z,1.60
2023-01-11T13:16:03.873Z,1.35
2023-01-11T13:18:48.441Z,1.55
2023-01-11T13:21:28.650Z,1.50
2023-01-11T13:23:57.703Z,1.90
2023-01-11T13:26:29.346Z,1.88
2023-01-11T13:31:34.575Z,1.85
2023-01-11T13:34:12.610Z,1.73
2023-01-11T13:36:45.447Z,1.95
2023-01-11T13:39:32.326Z,1.63
2023-01-11T13:42:04.405Z,1.58
2023-01-11T13:44:37.175Z,1.80
2023-01-11T13:47:11.473Z,1.58
2023-01-11T13:50:02.986Z,1.40
2023-01-11T13:52:52.814Z,1.85
2023-01-11T13:55:27.058Z,1.42
2023-01-11T13:57:59.922Z,1.83
2023-01-11T14:00:39.018Z,1.38
2023-01-11T14:03:30.101Z,1.30
2023-01-11T14:06:11.883Z,1.63
2023-01-11T14:09:06.283Z,1.50
2023-01-11T14:11:32.619Z,1.50
2023-01-11T14:14:27.763Z,1.75
2023-01-11T14:17:31.187Z,1.75
2023-01-11T14:20:14.697Z,2.03
2023-01-11T14:22:52.521Z,1.75
2023-01-11T14:25:30.316Z,2.10
2023-01-11T14:28:03.166Z,2.13
2023-01-11T14:31:06.446Z,2.00
2023-01-11T14:33:42.068Z,2.70
2023-01-11T14:36:17.241Z,3.90
2023-01-11T14:39:22.037Z,2.70
2023-01-11T14:42:29.321Z,2.85
2023-01-11T14:45:16.669Z,2.63
2023-01-11T14:48:10.891Z,2.53
2023-01-11T14:51:01.990Z,2.38
2023-01-11T14:53:39.575Z,2.60
2023-01-11T14:56:44.028Z,2.38
2023-01-11T14:59:39.806Z,2.55
2023-01-11T15:02:14.130Z,2.72
2023-01-11T15:04:53.321Z,2.50
2023-01-11T15:07:23.254Z,2.67
2023-01-11T15:09:53.766Z,3.00
2023-01-11T15:12:23.479Z,2.22
2023-01-11T15:14:55.344Z,2.25
2023-01-11T15:17:44.495Z,2.05
2023-01-11T15:20:17.151Z,2.33
2023-01-11T15:22:45.188Z,2.55
2023-01-11T15:25:31.261Z,2.38
2023-01-11T15:28:03.565Z,2.45
2023-01-11T15:30:30.108Z,2.83
2023-01-11T15:33:18.612Z,2.85
2023-01-11T15:35:57.315Z,2.97
2023-01-11T15:38:30.315Z,3.28
2023-01-11T15:41:18.452Z,2.83
2023-01-11T15:43:57.523Z,2.60
2023-01-11T15:46:55.820Z,2.35
2023-01-11T15:49:53.715Z,3.33
2023-01-11T15:52:50.445Z,2.70
2023-01-11T15:55:35.159Z,2.67
2023-01-11T15:58:23.824Z,2.47
2023-01-11T16:01:26.158Z,2.65
2023-01-11T16:06:57.954Z,3.55
2023-01-11T16:09:42.978Z,3.22
2023-01-11T16:12:41.188Z,3.20
2023-01-11T16:15:48.147Z,3.30
2023-01-11T16:18:24.070Z,2.95
2023-01-11T16:21:02.374Z,3.40
2023-01-11T16:23:31.842Z,3.13
2023-01-11T16:25:59.889Z,2.85
2023-01-11T16:28:27.932Z,2.70
2023-01-11T16:30:56.509Z,3.30
2023-01-11T16:33:29.183Z,3.15
2023-01-11T16:36:23.965Z,3.22
2023-01-11T16:39:13.261Z,3.83
2023-01-11T16:42:05.594Z,3.70
2023-01-11T16:44:53.476Z,4.13
2023-01-11T16:47:21.833Z,3.80
2023-01-11T16:50:09.388Z,4.22
2023-01-11T16:52:44.148Z,4.20
2023-01-11T16:55:19.888Z,4.95
2023-01-11T16:57:51.852Z,4.47
2023-01-11T17:00:35.415Z,4.72
2023-01-11T17:03:20.894Z,5.05
2023-01-11T17:05:58.081Z,4.70
2023-01-11T17:08:34.724Z,4.75
2023-01-11T17:11:07.713Z,4.95
2023-01-11T17:13:53.178Z,4.82
2023-01-11T17:16:23.195Z,5.55
2023-01-11T17:18:49.911Z,5.43
2023-01-11T17:21:25.855Z,5.22
2023-01-11T17:23:58.221Z,5.80
2023-01-11T17:26:28.032Z,6.18
2023-01-11T17:28:57.423Z,6.75
2023-01-11T17:31:30.982Z,5.88
2023-01-11T17:34:08.277Z,6.03
2023-01-11T17:36:36.076Z,6.28
2023-01-11T17:39:04.504Z,6.60
2023-01-11T17:41:50.043Z,7.38
2023-01-11T17:44:38.314Z,6.15
2023-01-11T17:47:08.733Z,6.32
2023-01-11T17:49:37.858Z,6.53
2023-01-11T17:52:10.612Z,5.93
2023-01-11T17:54:37.118Z,6.15
2023-01-11T17:57:03.738Z,6.55
2023-01-11T17:59:30.584Z,5.93
2023-01-11T18:02:02.606Z,6.00
2023-01-11T18:04:30.664Z,6.07
2023-01-11T18:07:07.863Z,6.38
2023-01-11T18:09:40.016Z,6.25
2023-01-11T18:12:22.986Z,5.93
2023-01-11T18:14:56.868Z,6.53
2023-01-11T18:17:32.374Z,6.20
2023-01-11T18:20:00.463Z,5.13
2023-01-11T18:22:43.291Z,5.63
2023-01-11T18:25:23.742Z,5.32
2023-01-11T18:27:50.983Z,5.68
2023-01-11T18:30:45.785Z,5.90
2023-01-11T18:33:22.561Z,6.25
2023-01-11T18:35:52.035Z,7.68
2023-01-11T18:38:21.537Z,6.65
2023-01-11T18:40:50.546Z,7.85
2023-01-11T18:43:24.163Z,7.65
2023-01-11T18:45:50.668Z,7.53
2023-01-11T18:48:17.642Z,8.25
2023-01-11T18:50:45.267Z,8.43
2023-01-11T18:53:13.511Z,7.20
2023-01-11T18:55:40.107Z,7.35
2023-01-11T18:58:06.911Z,8.13
2023-01-11T19:00:34.265Z,6.85
2023-01-11T19:03:01.051Z,6.10
2023-01-11T19:05:27.586Z,6.85
2023-01-11T19:07:53.960Z,6.57
2023-01-11T19:10:22.306Z,7.28
2023-01-11T19:12:49.510Z,6.50
2023-01-11T19:15:16.689Z,6.70
2023-01-11T19:17:43.537Z,7.32
2023-01-11T19:20:11.066Z,7.35
2023-01-11T19:22:38.119Z,5.63
2023-01-11T19:25:06.623Z,5.75
2023-01-11T19:27:33.171Z,5.90
2023-01-11T19:29:59.689Z,6.80
2023-01-11T19:32:26.111Z,6.18
2023-01-11T19:34:53.507Z,6.65
2023-01-11T19:37:20.716Z,7.07
2023-01-11T19:39:47.250Z,6.25
2023-01-11T19:42:13.667Z,6.90
2023-01-11T19:44:40.160Z,6.20
2023-01-11T19:47:13.277Z,6.35
2023-01-11T19:49:40.876Z,6.18
2023-01-11T19:52:18.550Z,6.28
2023-01-11T19:54:46.617Z,6.30
2023-01-11T19:57:17.833Z,6.95
2023-01-11T19:59:44.833Z,6.38
2023-01-11T20:02:13.164Z,6.30
2023-01-11T20:04:40.375Z,6.38
2023-01-11T20:07:08.230Z,5.88
2023-01-11T20:09:37.648Z,5.70
2023-01-11T20:12:09.674Z,5.97
2023-01-11T20:14:36.509Z,6.65
2023-01-11T20:17:03.320Z,5.90
2023-01-11T20:19:30.105Z,6.72
2023-01-11T20:21:56.680Z,6.68
2023-01-11T20:24:28.244Z,6.70
2023-01-11T20:26:58.467Z,6.40
2023-01-11T20:29:24.986Z,6.07
2023-01-11T20:31:51.507Z,6.95
2023-01-11T20:34:18.758Z,6.28
2023-01-11T20:36:45.565Z,7.22
2023-01-11T20:39:12.316Z,6.13
2023-01-11T20:41:48.607Z,6.47
2023-01-11T20:44:27.849Z,6.60
2023-01-11T20:46:56.101Z,5.85
2023-01-11T20:49:24.870Z,7.10
2023-01-11T20:51:51.779Z,6.97
2023-01-11T20:54:18.462Z,6.65
2023-01-11T20:56:47.808Z,7.00
2023-01-11T20:59:20.303Z,6.32
2023-01-11T21:01:48.580Z,6.60
2023-01-11T21:04:17.257Z,7.13
2023-01-11T21:06:46.015Z,5.93
2023-01-11T21:09:17.269Z,6.95
2023-01-11T21:11:44.258Z,5.68
2023-01-11T21:14:13.553Z,5.35
2023-01-11T21:16:44.257Z,5.63
2023-01-11T21:19:12.430Z,5.30
2023-01-11T21:21:38.930Z,6.63
2023-01-11T21:24:05.927Z,5.72
2023-01-11T21:26:34.363Z,6.13
2023-01-11T21:29:03.418Z,5.45
2023-01-11T21:31:32.604Z,5.93
2023-01-11T21:34:00.245Z,5.55
2023-01-11T21:36:28.388Z,5.90
2023-01-11T21:38:56.855Z,6.20
2023-01-11T21:41:47.611Z,5.90
2023-01-11T21:44:15.170Z,5.63
2023-01-11T21:46:42.806Z,5.57
2023-01-11T21:49:10.157Z,4.82
2023-01-11T21:51:37.060Z,5.30
2023-01-11T21:54:06.398Z,6.00
2023-01-11T21:56:33.241Z,5.88
2023-01-11T21:58:59.793Z,5.45
2023-01-11T22:01:26.565Z,4.93
2023-01-11T22:03:53.181Z,5.00
2023-01-11T22:06:19.723Z,5.50
2023-01-11T22:08:46.878Z,6.03
2023-01-11T22:11:17.897Z,6.10
2023-01-11T22:13:44.828Z,5.22
2023-01-11T22:16:16.922Z,6.63
2023-01-11T22:18:47.217Z,5.63
2023-01-11T22:21:17.852Z,5.95
2023-01-11T22:23:46.396Z,5.53
2023-01-11T22:26:15.302Z,6.25
2023-01-11T22:29:00.971Z,6.35
2023-01-11T22:31:29.396Z,6.88
2023-01-11T22:33:56.235Z,6.95
2023-01-11T22:36:23.769Z,8.25
2023-01-11T22:38:51.184Z,9.18
2023-01-11T22:41:17.784Z,9.35
2023-01-11T22:43:44.930Z,9.30
2023-01-11T22:46:16.886Z,7.60
2023-01-11T22:48:44.460Z,7.68
2023-01-11T22:51:11.726Z,6.95
2023-01-11T22:53:39.387Z,7.22
2023-01-11T22:56:06.858Z,6.75
2023-01-11T22:58:34.902Z,6.97
2023-01-11T23:01:22.043Z,9.18
2023-01-11T23:03:49.704Z,7.65
2023-01-11T23:06:21.562Z,7.45
2023-01-11T23:08:48.344Z,7.63
2023-01-11T23:11:56.263Z,8.15
2023-01-11T23:14:36.247Z,6.70
2023-01-11T23:17:08.028Z,6.47
2023-01-11T23:19:37.046Z,6.93
2023-01-11T23:22:04.705Z,6.80
2023-01-11T23:24:31.542Z,6.43
2023-01-11T23:26:58.128Z,6.78
2023-01-11T23:29:24.657Z,8.00
2023-01-11T23:31:51.155Z,6.28
2023-01-11T23:34:17.633Z,6.47
2023-01-11T23:36:44.047Z,6.22
2023-01-11T23:39:14.286Z,5.68
2023-01-11T23:41:59.447Z,6.63
2023-01-11T23:44:26.290Z,6.47
2023-01-11T23:47:11.059Z,7.25
2023-01-11T23:49:37.779Z,6.07
2023-01-11T23:52:04.499Z,6.22
2023-01-11T23:54:33.332Z,6.45
2023-01-11T23:57:01.509Z,6.78
2023-01-11T23:59:28.491Z,5.75
